sensor_id;sensor_type;location;lat;lon;timestamp;P1;durP1;ratioP1;P2;durP2;ratioP2
70455;SDS011;57916;51.996;5.180;2023-03-13T00:00:54;28.45;;;4.50;;
70455;SDS011;57916;51.996;5.180;2023-03-13T00:03:22;24.77;;;4.30;;
70455;SDS011;57916;51.996;5.180;2023-03-13T00:05:49;26.70;;;4.25;;
70455;SDS011;57916;51.996;5.180;2023-03-13T00:08:20;26.70;;;4.15;;
70455;SDS011;57916;51.996;5.180;2023-03-13T00:10:47;22.58;;;4.45;;
70455;SDS011;57916;51.996;5.180;2023-03-13T00:13:14;28.70;;;4.80;;
70455;SDS011;57916;51.996;5.180;2023-03-13T00:15:41;21.08;;;3.75;;
70455;SDS011;57916;51.996;5.180;2023-03-13T00:18:07;25.38;;;4.10;;
70455;SDS011;57916;51.996;5.180;2023-03-13T00:20:34;21.92;;;4.30;;
70455;SDS011;57916;51.996;5.180;2023-03-13T00:23:01;30.70;;;5.20;;
70455;SDS011;57916;51.996;5.180;2023-03-13T00:25:28;26.55;;;4.20;;
70455;SDS011;57916;51.996;5.180;2023-03-13T00:27:55;37.58;;;4.82;;
70455;SDS011;57916;51.996;5.180;2023-03-13T00:30:22;34.38;;;4.57;;
70455;SDS011;57916;51.996;5.180;2023-03-13T00:32:49;32.90;;;4.95;;
70455;SDS011;57916;51.996;5.180;2023-03-13T00:35:16;30.95;;;4.72;;
70455;SDS011;57916;51.996;5.180;2023-03-13T00:37:43;34.47;;;5.00;;
70455;SDS011;57916;51.996;5.180;2023-03-13T00:40:10;37.42;;;5.47;;
70455;SDS011;57916;51.996;5.180;2023-03-13T00:42:37;30.08;;;4.50;;
70455;SDS011;57916;51.996;5.180;2023-03-13T00:45:04;31.88;;;4.70;;
70455;SDS011;57916;51.996;5.180;2023-03-13T00:47:31;40.58;;;5.35;;
70455;SDS011;57916;51.996;5.180;2023-03-13T00:50:00;35.97;;;5.40;;
70455;SDS011;57916;51.996;5.180;2023-03-13T00:52:27;28.05;;;4.75;;
70455;SDS011;57916;51.996;5.180;2023-03-13T00:54:54;40.55;;;5.45;;
70455;SDS011;57916;51.996;5.180;2023-03-13T00:57:20;35.65;;;5.50;;
70455;SDS011;57916;51.996;5.180;2023-03-13T00:59:47;27.77;;;5.13;;
70455;SDS011;57916;51.996;5.180;2023-03-13T01:02:14;26.10;;;5.20;;
70455;SDS011;57916;51.996;5.180;2023-03-13T01:04:41;29.60;;;5.60;;
70455;SDS011;57916;51.996;5.180;2023-03-13T01:07:08;27.67;;;5.32;;
70455;SDS011;57916;51.996;5.180;2023-03-13T01:09:35;33.08;;;5.63;;
70455;SDS011;57916;51.996;5.180;2023-03-13T01:12:02;36.42;;;5.72;;
70455;SDS011;57916;51.996;5.180;2023-03-13T01:14:29;36.30;;;5.95;;
70455;SDS011;57916;51.996;5.180;2023-03-13T01:16:56;22.98;;;5.45;;
70455;SDS011;57916;51.996;5.180;2023-03-13T01:19:23;28.38;;;5.60;;
70455;SDS011;57916;51.996;5.180;2023-03-13T01:21:50;27.95;;;5.60;;
70455;SDS011;57916;51.996;5.180;2023-03-13T01:24:17;27.98;;;5.60;;
70455;SDS011;57916;51.996;5.180;2023-03-13T01:26:46;32.60;;;6.17;;
70455;SDS011;57916;51.996;5.180;2023-03-13T01:29:14;30.50;;;5.68;;
70455;SDS011;57916;51.996;5.180;2023-03-13T01:31:41;30.25;;;6.15;;
70455;SDS011;57916;51.996;5.180;2023-03-13T01:34:08;20.97;;;5.43;;
70455;SDS011;57916;51.996;5.180;2023-03-13T01:36:36;19.88;;;5.50;;
70455;SDS011;57916;51.996;5.180;2023-03-13T01:39:04;24.40;;;6.38;;
70455;SDS011;57916;51.996;5.180;2023-03-13T01:41:31;18.10;;;6.05;;
70455;SDS011;57916;51.996;5.180;2023-03-13T01:43:59;18.50;;;5.80;;
70455;SDS011;57916;51.996;5.180;2023-03-13T01:46:32;17.15;;;5.63;;
70455;SDS011;57916;51.996;5.180;2023-03-13T01:52:19;18.00;;;5.80;;
70455;SDS011;57916;51.996;5.180;2023-03-13T01:55:05;18.35;;;5.03;;
70455;SDS011;57916;51.996;5.180;2023-03-13T01:57:42;18.63;;;5.40;;
70455;SDS011;57916;51.996;5.180;2023-03-13T02:00:13;15.60;;;5.38;;
70455;SDS011;57916;51.996;5.180;2023-03-13T02:02:46;20.40;;;5.90;;
70455;SDS011;57916;51.996;5.180;2023-03-13T02:05:17;17.92;;;5.88;;
70455;SDS011;57916;51.996;5.180;2023-03-13T02:07:47;18.15;;;5.60;;
70455;SDS011;57916;51.996;5.180;2023-03-13T02:10:19;16.70;;;6.28;;
70455;SDS011;57916;51.996;5.180;2023-03-13T02:12:47;17.58;;;5.68;;
70455;SDS011;57916;51.996;5.180;2023-03-13T02:15:16;18.02;;;6.43;;
70455;SDS011;57916;51.996;5.180;2023-03-13T02:17:45;14.40;;;6.35;;
70455;SDS011;57916;51.996;5.180;2023-03-13T02:20:14;18.00;;;7.20;;
70455;SDS011;57916;51.996;5.180;2023-03-13T02:28:02;16.63;;;7.90;;
70455;SDS011;57916;51.996;5.180;2023-03-13T02:30:34;18.92;;;8.32;;
70455;SDS011;57916;51.996;5.180;2023-03-13T02:33:01;16.85;;;8.63;;
70455;SDS011;57916;51.996;5.180;2023-03-13T02:35:29;23.80;;;9.27;;
70455;SDS011;57916;51.996;5.180;2023-03-13T02:38:02;19.98;;;9.13;;
70455;SDS011;57916;51.996;5.180;2023-03-13T02:40:35;18.45;;;9.85;;
70455;SDS011;57916;51.996;5.180;2023-03-13T02:43:08;22.70;;;9.63;;
70455;SDS011;57916;51.996;5.180;2023-03-13T02:45:39;26.40;;;9.98;;
70455;SDS011;57916;51.996;5.180;2023-03-13T02:48:08;21.13;;;9.63;;
70455;SDS011;57916;51.996;5.180;2023-03-13T02:50:34;21.30;;;10.60;;
70455;SDS011;57916;51.996;5.180;2023-03-13T02:53:04;21.70;;;10.35;;
70455;SDS011;57916;51.996;5.180;2023-03-13T02:55:38;18.70;;;9.93;;
70455;SDS011;57916;51.996;5.180;2023-03-13T02:58:08;18.88;;;9.80;;
70455;SDS011;57916;51.996;5.180;2023-03-13T03:00:36;20.37;;;10.10;;
70455;SDS011;57916;51.996;5.180;2023-03-13T03:03:03;20.17;;;9.85;;
70455;SDS011;57916;51.996;5.180;2023-03-13T03:05:30;18.58;;;9.57;;
70455;SDS011;57916;51.996;5.180;2023-03-13T03:07:57;15.93;;;8.77;;
70455;SDS011;57916;51.996;5.180;2023-03-13T03:10:25;19.02;;;9.85;;
70455;SDS011;57916;51.996;5.180;2023-03-13T03:12:52;21.17;;;9.75;;
70455;SDS011;57916;51.996;5.180;2023-03-13T03:15:19;16.23;;;9.60;;
70455;SDS011;57916;51.996;5.180;2023-03-13T03:17:47;15.68;;;8.70;;
70455;SDS011;57916;51.996;5.180;2023-03-13T03:20:13;13.95;;;8.60;;
70455;SDS011;57916;51.996;5.180;2023-03-13T03:22:41;14.95;;;8.30;;
70455;SDS011;57916;51.996;5.180;2023-03-13T03:25:08;20.35;;;7.45;;
70455;SDS011;57916;51.996;5.180;2023-03-13T03:27:35;14.35;;;7.30;;
70455;SDS011;57916;51.996;5.180;2023-03-13T03:30:06;11.40;;;6.63;;
70455;SDS011;57916;51.996;5.180;2023-03-13T03:32:35;10.52;;;6.20;;
70455;SDS011;57916;51.996;5.180;2023-03-13T03:35:02;12.17;;;6.10;;
70455;SDS011;57916;51.996;5.180;2023-03-13T03:37:29;14.98;;;6.40;;
70455;SDS011;57916;51.996;5.180;2023-03-13T03:39:58;8.80;;;5.50;;
70455;SDS011;57916;51.996;5.180;2023-03-13T03:42:28;10.85;;;5.72;;
70455;SDS011;57916;51.996;5.180;2023-03-13T03:44:55;11.05;;;5.80;;
70455;SDS011;57916;51.996;5.180;2023-03-13T03:47:21;9.00;;;5.27;;
70455;SDS011;57916;51.996;5.180;2023-03-13T03:49:49;7.43;;;5.33;;
70455;SDS011;57916;51.996;5.180;2023-03-13T03:52:16;8.98;;;5.32;;
70455;SDS011;57916;51.996;5.180;2023-03-13T03:54:43;9.40;;;5.25;;
70455;SDS011;57916;51.996;5.180;2023-03-13T03:57:11;8.57;;;4.97;;
70455;SDS011;57916;51.996;5.180;2023-03-13T03:59:41;10.32;;;4.97;;
70455;SDS011;57916;51.996;5.180;2023-03-13T04:02:09;9.48;;;4.80;;
70455;SDS011;57916;51.996;5.180;2023-03-13T04:04:38;10.00;;;4.90;;
70455;SDS011;57916;51.996;5.180;2023-03-13T04:07:08;7.03;;;5.07;;
70455;SDS011;57916;51.996;5.180;2023-03-13T04:09:37;9.60;;;5.05;;
70455;SDS011;57916;51.996;5.180;2023-03-13T04:12:05;9.90;;;5.30;;
70455;SDS011;57916;51.996;5.180;2023-03-13T04:14:37;10.07;;;5.68;;
70455;SDS011;57916;51.996;5.180;2023-03-13T04:17:07;8.52;;;5.72;;
70455;SDS011;57916;51.996;5.180;2023-03-13T04:19:34;8.55;;;5.63;;
70455;SDS011;57916;51.996;5.180;2023-03-13T04:22:01;9.60;;;5.18;;
70455;SDS011;57916;51.996;5.180;2023-03-13T04:24:28;8.00;;;5.25;;
70455;SDS011;57916;51.996;5.180;2023-03-13T04:26:56;8.95;;;5.07;;
70455;SDS011;57916;51.996;5.180;2023-03-13T04:29:24;13.48;;;5.40;;
70455;SDS011;57916;51.996;5.180;2023-03-13T04:32:07;9.77;;;5.50;;
70455;SDS011;57916;51.996;5.180;2023-03-13T04:35:03;7.83;;;5.27;;
70455;SDS011;57916;51.996;5.180;2023-03-13T04:37:56;7.30;;;4.80;;
70455;SDS011;57916;51.996;5.180;2023-03-13T04:40:34;8.15;;;5.00;;
70455;SDS011;57916;51.996;5.180;2023-03-13T04:43:21;9.13;;;4.30;;
70455;SDS011;57916;51.996;5.180;2023-03-13T04:46:11;7.25;;;4.15;;
70455;SDS011;57916;51.996;5.180;2023-03-13T04:48:50;11.32;;;4.18;;
70455;SDS011;57916;51.996;5.180;2023-03-13T04:51:29;6.45;;;3.92;;
70455;SDS011;57916;51.996;5.180;2023-03-13T04:54:13;6.30;;;3.65;;
70455;SDS011;57916;51.996;5.180;2023-03-13T04:56:58;7.00;;;3.38;;
70455;SDS011;57916;51.996;5.180;2023-03-13T04:59:30;5.88;;;3.25;;
70455;SDS011;57916;51.996;5.180;2023-03-13T05:02:20;6.15;;;3.10;;
70455;SDS011;57916;51.996;5.180;2023-03-13T05:04:56;6.80;;;3.25;;
70455;SDS011;57916;51.996;5.180;2023-03-13T05:07:23;12.27;;;3.20;;
70455;SDS011;57916;51.996;5.180;2023-03-13T05:10:02;13.75;;;3.30;;
70455;SDS011;57916;51.996;5.180;2023-03-13T05:12:34;7.50;;;3.05;;
70455;SDS011;57916;51.996;5.180;2023-03-13T05:15:11;7.82;;;2.75;;
70455;SDS011;57916;51.996;5.180;2023-03-13T05:17:57;6.93;;;3.10;;
70455;SDS011;57916;51.996;5.180;2023-03-13T05:20:30;8.55;;;3.33;;
70455;SDS011;57916;51.996;5.180;2023-03-13T05:23:33;7.53;;;3.15;;
70455;SDS011;57916;51.996;5.180;2023-03-13T05:26:23;6.07;;;2.65;;
70455;SDS011;57916;51.996;5.180;2023-03-13T05:29:02;11.27;;;2.80;;
70455;SDS011;57916;51.996;5.180;2023-03-13T05:31:41;9.40;;;2.65;;
70455;SDS011;57916;51.996;5.180;2023-03-13T05:34:28;7.30;;;2.60;;
70455;SDS011;57916;51.996;5.180;2023-03-13T05:37:06;9.13;;;2.97;;
70455;SDS011;57916;51.996;5.180;2023-03-13T05:39:54;12.43;;;3.00;;
70455;SDS011;57916;51.996;5.180;2023-03-13T05:42:31;8.93;;;3.20;;
70455;SDS011;57916;51.996;5.180;2023-03-13T05:45:17;9.80;;;3.00;;
70455;SDS011;57916;51.996;5.180;2023-03-13T05:47:59;11.80;;;2.90;;
70455;SDS011;57916;51.996;5.180;2023-03-13T05:50:49;9.52;;;3.33;;
70455;SDS011;57916;51.996;5.180;2023-03-13T05:53:39;7.65;;;2.70;;
70455;SDS011;57916;51.996;5.180;2023-03-13T05:56:24;9.27;;;2.70;;
70455;SDS011;57916;51.996;5.180;2023-03-13T05:59:22;11.00;;;2.70;;
70455;SDS011;57916;51.996;5.180;2023-03-13T06:02:27;9.70;;;2.58;;
70455;SDS011;57916;51.996;5.180;2023-03-13T06:04:55;8.32;;;2.90;;
70455;SDS011;57916;51.996;5.180;2023-03-13T06:07:22;8.43;;;3.20;;
70455;SDS011;57916;51.996;5.180;2023-03-13T06:09:49;5.63;;;2.50;;
70455;SDS011;57916;51.996;5.180;2023-03-13T06:12:16;5.18;;;2.60;;
70455;SDS011;57916;51.996;5.180;2023-03-13T06:14:43;7.72;;;2.78;;
70455;SDS011;57916;51.996;5.180;2023-03-13T06:17:30;8.30;;;2.90;;
70455;SDS011;57916;51.996;5.180;2023-03-13T06:19:57;7.35;;;2.40;;
70455;SDS011;57916;51.996;5.180;2023-03-13T06:22:24;8.63;;;2.80;;
70455;SDS011;57916;51.996;5.180;2023-03-13T06:24:51;7.63;;;2.95;;
70455;SDS011;57916;51.996;5.180;2023-03-13T06:27:18;7.53;;;2.65;;
70455;SDS011;57916;51.996;5.180;2023-03-13T06:29:45;4.72;;;2.80;;
70455;SDS011;57916;51.996;5.180;2023-03-13T06:32:11;6.33;;;2.60;;
70455;SDS011;57916;51.996;5.180;2023-03-13T06:34:38;9.55;;;2.92;;
70455;SDS011;57916;51.996;5.180;2023-03-13T06:37:05;8.55;;;3.00;;
70455;SDS011;57916;51.996;5.180;2023-03-13T06:39:32;9.45;;;2.92;;
70455;SDS011;57916;51.996;5.180;2023-03-13T06:41:59;6.75;;;2.65;;
70455;SDS011;57916;51.996;5.180;2023-03-13T06:44:26;11.00;;;2.97;;
70455;SDS011;57916;51.996;5.180;2023-03-13T06:46:53;8.73;;;2.65;;
70455;SDS011;57916;51.996;5.180;2023-03-13T06:49:20;12.73;;;3.10;;
70455;SDS011;57916;51.996;5.180;2023-03-13T06:51:47;11.25;;;2.90;;
70455;SDS011;57916;51.996;5.180;2023-03-13T06:54:14;5.38;;;2.50;;
70455;SDS011;57916;51.996;5.180;2023-03-13T06:56:41;9.32;;;2.72;;
70455;SDS011;57916;51.996;5.180;2023-03-13T06:59:08;10.63;;;2.95;;
70455;SDS011;57916;51.996;5.180;2023-03-13T07:01:35;7.23;;;2.30;;
70455;SDS011;57916;51.996;5.180;2023-03-13T07:04:02;12.25;;;3.10;;
70455;SDS011;57916;51.996;5.180;2023-03-13T07:06:29;8.18;;;2.90;;
70455;SDS011;57916;51.996;5.180;2023-03-13T07:08:55;8.40;;;2.90;;
70455;SDS011;57916;51.996;5.180;2023-03-13T07:11:22;8.00;;;2.83;;
70455;SDS011;57916;51.996;5.180;2023-03-13T07:13:53;9.18;;;2.78;;
70455;SDS011;57916;51.996;5.180;2023-03-13T07:16:40;15.00;;;3.30;;
70455;SDS011;57916;51.996;5.180;2023-03-13T07:19:07;7.00;;;3.20;;
70455;SDS011;57916;51.996;5.180;2023-03-13T07:21:34;7.70;;;3.25;;
70455;SDS011;57916;51.996;5.180;2023-03-13T07:24:01;10.68;;;3.33;;
70455;SDS011;57916;51.996;5.180;2023-03-13T07:26:28;8.20;;;3.33;;
70455;SDS011;57916;51.996;5.180;2023-03-13T07:28:55;10.85;;;3.40;;
70455;SDS011;57916;51.996;5.180;2023-03-13T07:31:22;6.90;;;2.90;;
70455;SDS011;57916;51.996;5.180;2023-03-13T07:33:50;12.13;;;3.85;;
70455;SDS011;57916;51.996;5.180;2023-03-13T07:36:19;11.35;;;3.42;;
70455;SDS011;57916;51.996;5.180;2023-03-13T07:38:49;11.68;;;3.65;;
70455;SDS011;57916;51.996;5.180;2023-03-13T07:41:18;9.93;;;3.47;;
70455;SDS011;57916;51.996;5.180;2023-03-13T07:43:45;10.52;;;3.25;;
70455;SDS011;57916;51.996;5.180;2023-03-13T07:46:16;9.50;;;3.75;;
70455;SDS011;57916;51.996;5.180;2023-03-13T07:48:45;9.13;;;3.35;;
70455;SDS011;57916;51.996;5.180;2023-03-13T07:51:20;14.33;;;3.30;;
70455;SDS011;57916;51.996;5.180;2023-03-13T07:54:02;5.65;;;2.85;;
70455;SDS011;57916;51.996;5.180;2023-03-13T07:56:29;9.48;;;3.15;;
70455;SDS011;57916;51.996;5.180;2023-03-13T07:58:56;8.65;;;3.08;;
70455;SDS011;57916;51.996;5.180;2023-03-13T08:01:23;7.93;;;2.75;;
70455;SDS011;57916;51.996;5.180;2023-03-13T08:03:55;8.40;;;3.00;;
70455;SDS011;57916;51.996;5.180;2023-03-13T08:06:25;10.70;;;3.15;;
70455;SDS011;57916;51.996;5.180;2023-03-13T08:08:55;7.47;;;2.80;;
70455;SDS011;57916;51.996;5.180;2023-03-13T08:11:24;11.57;;;3.00;;
70455;SDS011;57916;51.996;5.180;2023-03-13T08:13:52;9.70;;;3.17;;
70455;SDS011;57916;51.996;5.180;2023-03-13T08:16:20;9.10;;;3.08;;
70455;SDS011;57916;51.996;5.180;2023-03-13T08:18:50;8.52;;;3.17;;
70455;SDS011;57916;51.996;5.180;2023-03-13T08:21:27;10.02;;;3.47;;
70455;SDS011;57916;51.996;5.180;2023-03-13T08:23:57;8.10;;;2.90;;
70455;SDS011;57916;51.996;5.180;2023-03-13T08:26:26;7.68;;;2.95;;
70455;SDS011;57916;51.996;5.180;2023-03-13T08:28:56;11.60;;;2.92;;
70455;SDS011;57916;51.996;5.180;2023-03-13T08:31:28;5.60;;;2.77;;
70455;SDS011;57916;51.996;5.180;2023-03-13T08:33:57;4.82;;;2.42;;
70455;SDS011;57916;51.996;5.180;2023-03-13T08:36:30;7.10;;;2.45;;
70455;SDS011;57916;51.996;5.180;2023-03-13T08:39:00;5.40;;;2.40;;
70455;SDS011;57916;51.996;5.180;2023-03-13T08:41:32;8.02;;;2.50;;
70455;SDS011;57916;51.996;5.180;2023-03-13T08:44:06;6.18;;;2.42;;
70455;SDS011;57916;51.996;5.180;2023-03-13T08:46:35;10.27;;;2.60;;
70455;SDS011;57916;51.996;5.180;2023-03-13T08:49:03;10.20;;;2.67;;
70455;SDS011;57916;51.996;5.180;2023-03-13T08:51:32;5.90;;;2.20;;
70455;SDS011;57916;51.996;5.180;2023-03-13T08:54:00;6.70;;;2.23;;
70455;SDS011;57916;51.996;5.180;2023-03-13T08:56:29;5.90;;;1.98;;
70455;SDS011;57916;51.996;5.180;2023-03-13T08:58:57;6.00;;;2.03;;
70455;SDS011;57916;51.996;5.180;2023-03-13T09:01:27;7.65;;;2.10;;
70455;SDS011;57916;51.996;5.180;2023-03-13T09:03:55;6.15;;;2.05;;
70455;SDS011;57916;51.996;5.180;2023-03-13T09:06:23;2.78;;;1.73;;
70455;SDS011;57916;51.996;5.180;2023-03-13T09:08:50;3.58;;;1.67;;
70455;SDS011;57916;51.996;5.180;2023-03-13T09:11:18;8.20;;;1.70;;
70455;SDS011;57916;51.996;5.180;2023-03-13T09:13:47;3.95;;;1.65;;
70455;SDS011;57916;51.996;5.180;2023-03-13T09:16:16;4.60;;;1.75;;
70455;SDS011;57916;51.996;5.180;2023-03-13T09:18:45;6.63;;;1.52;;
70455;SDS011;57916;51.996;5.180;2023-03-13T09:21:14;6.37;;;1.63;;
70455;SDS011;57916;51.996;5.180;2023-03-13T09:23:45;5.18;;;1.55;;
70455;SDS011;57916;51.996;5.180;2023-03-13T09:26:13;7.75;;;1.70;;
70455;SDS011;57916;51.996;5.180;2023-03-13T09:28:40;5.47;;;1.50;;
70455;SDS011;57916;51.996;5.180;2023-03-13T09:31:09;3.20;;;1.43;;
70455;SDS011;57916;51.996;5.180;2023-03-13T09:33:41;4.55;;;1.50;;
70455;SDS011;57916;51.996;5.180;2023-03-13T09:36:09;5.00;;;1.70;;
70455;SDS011;57916;51.996;5.180;2023-03-13T09:38:37;5.38;;;1.40;;
70455;SDS011;57916;51.996;5.180;2023-03-13T09:49:30;4.88;;;1.23;;
70455;SDS011;57916;51.996;5.180;2023-03-13T09:52:18;4.20;;;1.27;;
70455;SDS011;57916;51.996;5.180;2023-03-13T09:55:01;5.27;;;1.40;;
70455;SDS011;57916;51.996;5.180;2023-03-13T09:57:32;3.75;;;1.45;;
70455;SDS011;57916;51.996;5.180;2023-03-13T10:00:24;4.22;;;1.30;;
70455;SDS011;57916;51.996;5.180;2023-03-13T10:03:11;2.92;;;1.00;;
70455;SDS011;57916;51.996;5.180;2023-03-13T10:05:46;2.92;;;1.20;;
70455;SDS011;57916;51.996;5.180;2023-03-13T10:08:21;3.67;;;1.45;;
70455;SDS011;57916;51.996;5.180;2023-03-13T10:17:00;4.10;;;1.10;;
70455;SDS011;57916;51.996;5.180;2023-03-13T10:19:36;4.18;;;1.05;;
70455;SDS011;57916;51.996;5.180;2023-03-13T10:22:10;2.78;;;1.33;;
70455;SDS011;57916;51.996;5.180;2023-03-13T10:24:54;2.42;;;1.10;;
70455;SDS011;57916;51.996;5.180;2023-03-13T10:27:24;4.80;;;1.60;;
70455;SDS011;57916;51.996;5.180;2023-03-13T10:29:51;3.05;;;1.27;;
70455;SDS011;57916;51.996;5.180;2023-03-13T10:32:18;4.63;;;1.10;;
70455;SDS011;57916;51.996;5.180;2023-03-13T10:37:24;3.80;;;1.60;;
70455;SDS011;57916;51.996;5.180;2023-03-13T10:40:12;4.47;;;1.00;;
70455;SDS011;57916;51.996;5.180;2023-03-13T10:42:43;4.47;;;1.40;;
70455;SDS011;57916;51.996;5.180;2023-03-13T10:45:15;5.70;;;1.30;;
70455;SDS011;57916;51.996;5.180;2023-03-13T10:47:44;8.88;;;1.80;;
70455;SDS011;57916;51.996;5.180;2023-03-13T10:50:22;2.90;;;1.40;;
70455;SDS011;57916;51.996;5.180;2023-03-13T10:52:51;5.15;;;1.20;;
70455;SDS011;57916;51.996;5.180;2023-03-13T10:58:13;6.30;;;1.33;;
70455;SDS011;57916;51.996;5.180;2023-03-13T11:00:42;7.63;;;1.50;;
70455;SDS011;57916;51.996;5.180;2023-03-13T11:03:16;5.40;;;1.08;;
70455;SDS011;57916;51.996;5.180;2023-03-13T11:05:55;6.40;;;1.20;;
70455;SDS011;57916;51.996;5.180;2023-03-13T11:08:26;7.50;;;1.35;;
70455;SDS011;57916;51.996;5.180;2023-03-13T11:10:57;4.82;;;0.90;;
70455;SDS011;57916;51.996;5.180;2023-03-13T11:13:32;4.32;;;1.15;;
70455;SDS011;57916;51.996;5.180;2023-03-13T11:16:49;4.35;;;1.15;;
70455;SDS011;57916;51.996;5.180;2023-03-13T11:21:52;3.10;;;1.30;;
70455;SDS011;57916;51.996;5.180;2023-03-13T11:24:59;3.93;;;1.07;;
70455;SDS011;57916;51.996;5.180;2023-03-13T11:33:58;5.15;;;1.08;;
70455;SDS011;57916;51.996;5.180;2023-03-13T11:36:50;6.65;;;1.10;;
70455;SDS011;57916;51.996;5.180;2023-03-13T11:48:07;4.60;;;1.30;;
70455;SDS011;57916;51.996;5.180;2023-03-13T11:50:56;3.38;;;1.10;;
70455;SDS011;57916;51.996;5.180;2023-03-13T11:53:39;5.22;;;1.30;;
70455;SDS011;57916;51.996;5.180;2023-03-13T12:01:26;2.50;;;0.98;;
70455;SDS011;57916;51.996;5.180;2023-03-13T12:06:40;10.95;;;1.23;;
70455;SDS011;57916;51.996;5.180;2023-03-13T12:11:56;22.88;;;1.88;;
70455;SDS011;57916;51.996;5.180;2023-03-13T12:17:36;10.40;;;1.50;;
70455;SDS011;57916;51.996;5.180;2023-03-13T12:20:12;11.87;;;1.93;;
70455;SDS011;57916;51.996;5.180;2023-03-13T12:28:23;7.93;;;1.40;;
70455;SDS011;57916;51.996;5.180;2023-03-13T12:31:03;7.77;;;1.70;;
70455;SDS011;57916;51.996;5.180;2023-03-13T12:36:43;7.33;;;2.10;;
70455;SDS011;57916;51.996;5.180;2023-03-13T12:39:25;10.23;;;1.70;;
70455;SDS011;57916;51.996;5.180;2023-03-13T12:42:22;8.55;;;1.60;;
70455;SDS011;57916;51.996;5.180;2023-03-13T12:45:00;10.25;;;1.60;;
70455;SDS011;57916;51.996;5.180;2023-03-13T12:50:24;16.15;;;1.65;;
70455;SDS011;57916;51.996;5.180;2023-03-13T12:55:57;12.68;;;1.90;;
70455;SDS011;57916;51.996;5.180;2023-03-13T13:02:00;9.38;;;1.55;;
70455;SDS011;57916;51.996;5.180;2023-03-13T13:04:32;13.23;;;1.75;;
70455;SDS011;57916;51.996;5.180;2023-03-13T13:07:17;11.18;;;1.90;;
70455;SDS011;57916;51.996;5.180;2023-03-13T13:12:39;8.02;;;1.50;;
70455;SDS011;57916;51.996;5.180;2023-03-13T13:15:27;9.37;;;1.77;;
70455;SDS011;57916;51.996;5.180;2023-03-13T13:17:57;7.93;;;1.40;;
70455;SDS011;57916;51.996;5.180;2023-03-13T13:20:40;8.68;;;1.70;;
70455;SDS011;57916;51.996;5.180;2023-03-13T13:25:51;10.38;;;2.03;;
70455;SDS011;57916;51.996;5.180;2023-03-13T13:28:24;11.10;;;2.03;;
70455;SDS011;57916;51.996;5.180;2023-03-13T13:30:57;9.50;;;1.90;;
70455;SDS011;57916;51.996;5.180;2023-03-13T13:38:39;14.82;;;2.60;;
70455;SDS011;57916;51.996;5.180;2023-03-13T13:51:32;15.95;;;2.70;;
70455;SDS011;57916;51.996;5.180;2023-03-13T14:01:47;13.32;;;2.65;;
70455;SDS011;57916;51.996;5.180;2023-03-13T14:04:59;20.15;;;2.63;;
70455;SDS011;57916;51.996;5.180;2023-03-13T14:07:11;13.13;;;2.50;;
70455;SDS011;57916;51.996;5.180;2023-03-13T14:09:57;20.00;;;3.23;;
70455;SDS011;57916;51.996;5.180;2023-03-13T14:12:35;16.42;;;2.70;;
70455;SDS011;57916;51.996;5.180;2023-03-13T14:17:47;15.40;;;2.75;;
70455;SDS011;57916;51.996;5.180;2023-03-13T14:22:54;13.07;;;3.03;;
70455;SDS011;57916;51.996;5.180;2023-03-13T14:25:27;14.55;;;2.58;;
70455;SDS011;57916;51.996;5.180;2023-03-13T14:28:13;15.02;;;2.90;;
70455;SDS011;57916;51.996;5.180;2023-03-13T14:31:01;23.53;;;2.80;;
70455;SDS011;57916;51.996;5.180;2023-03-13T14:33:28;16.23;;;2.90;;
70455;SDS011;57916;51.996;5.180;2023-03-13T14:35:55;13.97;;;2.17;;
70455;SDS011;57916;51.996;5.180;2023-03-13T14:38:24;22.33;;;2.70;;
70455;SDS011;57916;51.996;5.180;2023-03-13T14:40:53;17.30;;;2.75;;
70455;SDS011;57916;51.996;5.180;2023-03-13T14:45:56;16.95;;;3.15;;
70455;SDS011;57916;51.996;5.180;2023-03-13T14:51:02;17.25;;;2.90;;
70455;SDS011;57916;51.996;5.180;2023-03-13T14:54:01;14.65;;;2.67;;
70455;SDS011;57916;51.996;5.180;2023-03-13T15:01:58;15.32;;;2.60;;
70455;SDS011;57916;51.996;5.180;2023-03-13T15:07:13;18.63;;;2.42;;
70455;SDS011;57916;51.996;5.180;2023-03-13T15:09:41;13.20;;;2.40;;
70455;SDS011;57916;51.996;5.180;2023-03-13T15:12:12;16.90;;;2.88;;
70455;SDS011;57916;51.996;5.180;2023-03-13T15:14:42;18.13;;;3.15;;
70455;SDS011;57916;51.996;5.180;2023-03-13T15:17:18;17.52;;;2.88;;
70455;SDS011;57916;51.996;5.180;2023-03-13T15:19:48;13.55;;;2.50;;
70455;SDS011;57916;51.996;5.180;2023-03-13T15:22:17;18.73;;;2.58;;
70455;SDS011;57916;51.996;5.180;2023-03-13T15:24:49;14.20;;;2.60;;
70455;SDS011;57916;51.996;5.180;2023-03-13T15:27:31;16.00;;;3.00;;
70455;SDS011;57916;51.996;5.180;2023-03-13T15:29:58;16.45;;;3.35;;
70455;SDS011;57916;51.996;5.180;2023-03-13T15:32:25;18.60;;;2.97;;
70455;SDS011;57916;51.996;5.180;2023-03-13T15:34:55;19.77;;;3.20;;
70455;SDS011;57916;51.996;5.180;2023-03-13T15:37:24;17.23;;;3.03;;
70455;SDS011;57916;51.996;5.180;2023-03-13T15:39:53;17.23;;;2.92;;
70455;SDS011;57916;51.996;5.180;2023-03-13T15:42:21;22.00;;;3.25;;
70455;SDS011;57916;51.996;5.180;2023-03-13T15:44:49;20.58;;;2.97;;
70455;SDS011;57916;51.996;5.180;2023-03-13T15:47:19;13.15;;;2.92;;
70455;SDS011;57916;51.996;5.180;2023-03-13T15:49:47;17.30;;;3.13;;
70455;SDS011;57916;51.996;5.180;2023-03-13T15:52:15;18.45;;;2.80;;
70455;SDS011;57916;51.996;5.180;2023-03-13T15:54:50;18.08;;;2.97;;
70455;SDS011;57916;51.996;5.180;2023-03-13T15:57:18;20.15;;;2.95;;
70455;SDS011;57916;51.996;5.180;2023-03-13T15:59:48;14.50;;;3.35;;
70455;SDS011;57916;51.996;5.180;2023-03-13T16:02:18;20.15;;;2.92;;
70455;SDS011;57916;51.996;5.180;2023-03-13T16:04:49;14.55;;;2.70;;
70455;SDS011;57916;51.996;5.180;2023-03-13T16:07:17;20.30;;;2.90;;
70455;SDS011;57916;51.996;5.180;2023-03-13T16:09:46;14.35;;;2.70;;
70455;SDS011;57916;51.996;5.180;2023-03-13T16:12:13;14.93;;;2.77;;
70455;SDS011;57916;51.996;5.180;2023-03-13T16:14:40;18.88;;;3.10;;
70455;SDS011;57916;51.996;5.180;2023-03-13T16:17:12;25.60;;;3.30;;
70455;SDS011;57916;51.996;5.180;2023-03-13T16:19:42;15.55;;;2.92;;
70455;SDS011;57916;51.996;5.180;2023-03-13T16:22:10;14.90;;;2.83;;
70455;SDS011;57916;51.996;5.180;2023-03-13T16:24:37;21.20;;;3.25;;
70455;SDS011;57916;51.996;5.180;2023-03-13T16:27:14;22.57;;;2.90;;
70455;SDS011;57916;51.996;5.180;2023-03-13T16:29:43;24.35;;;3.60;;
70455;SDS011;57916;51.996;5.180;2023-03-13T16:32:11;25.23;;;3.80;;
70455;SDS011;57916;51.996;5.180;2023-03-13T16:34:40;17.95;;;2.70;;
70455;SDS011;57916;51.996;5.180;2023-03-13T16:37:09;18.92;;;2.67;;
70455;SDS011;57916;51.996;5.180;2023-03-13T16:39:41;19.70;;;3.42;;
70455;SDS011;57916;51.996;5.180;2023-03-13T16:42:09;17.33;;;3.08;;
70455;SDS011;57916;51.996;5.180;2023-03-13T16:44:37;16.23;;;3.33;;
70455;SDS011;57916;51.996;5.180;2023-03-13T16:47:14;22.80;;;3.88;;
70455;SDS011;57916;51.996;5.180;2023-03-13T16:49:47;21.02;;;3.55;;
70455;SDS011;57916;51.996;5.180;2023-03-13T16:52:14;24.60;;;3.60;;
70455;SDS011;57916;51.996;5.180;2023-03-13T16:54:42;29.92;;;3.88;;
70455;SDS011;57916;51.996;5.180;2023-03-13T16:57:10;19.53;;;3.33;;
70455;SDS011;57916;51.996;5.180;2023-03-13T16:59:40;28.77;;;3.65;;
70455;SDS011;57916;51.996;5.180;2023-03-13T17:02:14;21.20;;;3.53;;
70455;SDS011;57916;51.996;5.180;2023-03-13T17:04:45;32.53;;;4.10;;
70455;SDS011;57916;51.996;5.180;2023-03-13T17:07:23;24.88;;;4.15;;
70455;SDS011;57916;51.996;5.180;2023-03-13T17:09:52;31.50;;;4.10;;
70455;SDS011;57916;51.996;5.180;2023-03-13T17:12:18;30.38;;;4.18;;
70455;SDS011;57916;51.996;5.180;2023-03-13T17:14:45;29.37;;;3.77;;